sensor_id;sensor_type;location;lat;lon;timestamp;P1;durP1;ratioP1;P2;durP2;ratioP2
53688;SDS011;39583;54.682;30.662;2022-09-29T06:14:54;24.83;;;23.02;;
53688;SDS011;39583;54.682;30.662;2022-09-29T06:17:21;14.70;;;13.43;;
53688;SDS011;39583;54.682;30.662;2022-09-29T06:19:47;9.48;;;8.57;;
53688;SDS011;39583;54.682;30.662;2022-09-29T06:22:13;8.38;;;6.65;;
53688;SDS011;39583;54.682;30.662;2022-09-29T06:24:39;7.55;;;6.40;;
53688;SDS011;39583;54.682;30.662;2022-09-29T06:27:06;7.85;;;5.32;;
53688;SDS011;39583;54.682;30.662;2022-09-29T06:29:32;6.75;;;4.85;;
53688;SDS011;39583;54.682;30.662;2022-09-29T06:31:58;8.07;;;4.00;;
53688;SDS011;39583;54.682;30.662;2022-09-29T06:34:24;7.03;;;4.10;;
53688;SDS011;39583;54.682;30.662;2022-09-29T06:36:50;6.15;;;4.30;;
53688;SDS011;39583;54.682;30.662;2022-09-29T06:39:36;6.13;;;4.53;;
53688;SDS011;39583;54.682;30.662;2022-09-29T06:42:02;4.88;;;3.35;;
53688;SDS011;39583;54.682;30.662;2022-09-29T06:44:28;6.90;;;3.75;;
53688;SDS011;39583;54.682;30.662;2022-09-29T06:46:55;4.95;;;3.67;;
53688;SDS011;39583;54.682;30.662;2022-09-29T06:49:23;5.47;;;3.80;;
53688;SDS011;39583;54.682;30.662;2022-09-29T06:51:49;6.22;;;4.93;;
53688;SDS011;39583;54.682;30.662;2022-09-29T06:54:17;8.57;;;5.18;;
53688;SDS011;39583;54.682;30.662;2022-09-29T06:56:46;5.15;;;3.45;;
53688;SDS011;39583;54.682;30.662;2022-09-29T06:59:13;5.78;;;4.00;;
53688;SDS011;39583;54.682;30.662;2022-09-29T07:01:40;5.03;;;3.80;;
53688;SDS011;39583;54.682;30.662;2022-09-29T07:04:07;7.32;;;4.10;;
53688;SDS011;39583;54.682;30.662;2022-09-29T07:06:33;5.55;;;4.30;;
53688;SDS011;39583;54.682;30.662;2022-09-29T07:09:01;6.28;;;4.60;;
53688;SDS011;39583;54.682;30.662;2022-09-29T07:11:27;6.97;;;4.50;;
53688;SDS011;39583;54.682;30.662;2022-09-29T07:13:54;6.40;;;4.72;;
53688;SDS011;39583;54.682;30.662;2022-09-29T07:16:20;7.25;;;4.90;;
53688;SDS011;39583;54.682;30.662;2022-09-29T07:18:48;5.65;;;3.95;;
53688;SDS011;39583;54.682;30.662;2022-09-29T07:21:15;8.60;;;5.25;;
53688;SDS011;39583;54.682;30.662;2022-09-29T07:23:42;7.07;;;4.88;;
53688;SDS011;39583;54.682;30.662;2022-09-29T07:26:09;9.63;;;5.68;;
53688;SDS011;39583;54.682;30.662;2022-09-29T07:28:36;7.85;;;5.55;;
53688;SDS011;39583;54.682;30.662;2022-09-29T07:31:04;8.20;;;5.60;;
53688;SDS011;39583;54.682;30.662;2022-09-29T07:33:32;10.85;;;4.90;;
53688;SDS011;39583;54.682;30.662;2022-09-29T07:35:58;7.20;;;4.85;;
53688;SDS011;39583;54.682;30.662;2022-09-29T07:38:25;7.22;;;4.88;;
53688;SDS011;39583;54.682;30.662;2022-09-29T07:40:52;5.60;;;4.07;;
53688;SDS011;39583;54.682;30.662;2022-09-29T07:43:19;8.00;;;4.60;;
53688;SDS011;39583;54.682;30.662;2022-09-29T07:45:48;6.20;;;4.75;;
53688;SDS011;39583;54.682;30.662;2022-09-29T07:48:16;5.68;;;4.35;;
53688;SDS011;39583;54.682;30.662;2022-09-29T07:50:43;6.93;;;4.95;;
53688;SDS011;39583;54.682;30.662;2022-09-29T07:53:10;5.35;;;4.43;;
53688;SDS011;39583;54.682;30.662;2022-09-29T07:55:37;6.35;;;4.63;;
53688;SDS011;39583;54.682;30.662;2022-09-29T07:58:04;5.10;;;4.10;;
53688;SDS011;39583;54.682;30.662;2022-09-29T08:00:31;8.10;;;4.95;;
53688;SDS011;39583;54.682;30.662;2022-09-29T08:03:01;6.03;;;4.60;;
53688;SDS011;39583;54.682;30.662;2022-09-29T08:05:30;4.90;;;3.78;;
53688;SDS011;39583;54.682;30.662;2022-09-29T08:07:59;5.07;;;4.00;;
53688;SDS011;39583;54.682;30.662;2022-09-29T08:10:26;5.15;;;3.92;;
53688;SDS011;39583;54.682;30.662;2022-09-29T08:12:53;6.80;;;3.53;;
53688;SDS011;39583;54.682;30.662;2022-09-29T08:15:21;6.05;;;4.00;;
53688;SDS011;39583;54.682;30.662;2022-09-29T08:17:51;5.53;;;3.97;;
53688;SDS011;39583;54.682;30.662;2022-09-29T08:20:19;5.20;;;3.90;;
53688;SDS011;39583;54.682;30.662;2022-09-29T08:22:46;5.47;;;4.32;;
53688;SDS011;39583;54.682;30.662;2022-09-29T08:25:16;5.53;;;3.97;;
53688;SDS011;39583;54.682;30.662;2022-09-29T08:27:42;5.63;;;4.28;;
53688;SDS011;39583;54.682;30.662;2022-09-29T08:30:10;4.50;;;3.58;;
53688;SDS011;39583;54.682;30.662;2022-09-29T08:32:36;6.30;;;4.40;;
53688;SDS011;39583;54.682;30.662;2022-09-29T08:35:03;5.30;;;3.90;;
53688;SDS011;39583;54.682;30.662;2022-09-29T08:37:30;5.00;;;4.10;;
53688;SDS011;39583;54.682;30.662;2022-09-29T08:39:57;4.97;;;3.63;;
53688;SDS011;39583;54.682;30.662;2022-09-29T08:44:57;5.15;;;4.18;;
53688;SDS011;39583;54.682;30.662;2022-09-29T08:47:31;5.97;;;4.55;;
53688;SDS011;39583;54.682;30.662;2022-09-29T08:50:05;6.90;;;4.47;;
53688;SDS011;39583;54.682;30.662;2022-09-29T08:52:42;5.78;;;4.35;;
53688;SDS011;39583;54.682;30.662;2022-09-29T08:57:45;5.45;;;4.45;;
53688;SDS011;39583;54.682;30.662;2022-09-29T09:00:14;8.60;;;4.85;;
53688;SDS011;39583;54.682;30.662;2022-09-29T09:11:19;5.80;;;5.20;;
53688;SDS011;39583;54.682;30.662;2022-09-29T09:24:43;7.72;;;5.72;;
53688;SDS011;39583;54.682;30.662;2022-09-29T09:27:12;10.40;;;6.60;;
53688;SDS011;39583;54.682;30.662;2022-09-29T09:29:47;9.18;;;6.50;;
53688;SDS011;39583;54.682;30.662;2022-09-29T09:32:24;7.30;;;6.43;;
53688;SDS011;39583;54.682;30.662;2022-09-29T09:38:33;6.85;;;4.50;;
53688;SDS011;39583;54.682;30.662;2022-09-29T09:41:25;7.05;;;6.35;;
53688;SDS011;39583;54.682;30.662;2022-09-29T09:43:57;5.38;;;4.75;;
53688;SDS011;39583;54.682;30.662;2022-09-29T09:46:38;6.70;;;5.15;;
53688;SDS011;39583;54.682;30.662;2022-09-29T09:49:22;5.45;;;4.95;;
53688;SDS011;39583;54.682;30.662;2022-09-29T09:54:37;4.05;;;3.65;;
53688;SDS011;39583;54.682;30.662;2022-09-29T10:02:45;4.45;;;3.67;;
53688;SDS011;39583;54.682;30.662;2022-09-29T10:05:16;4.07;;;3.40;;
53688;SDS011;39583;54.682;30.662;2022-09-29T10:07:45;4.18;;;3.78;;
53688;SDS011;39583;54.682;30.662;2022-09-29T10:10:24;4.45;;;4.05;;
53688;SDS011;39583;54.682;30.662;2022-09-29T10:15:44;4.93;;;3.70;;
53688;SDS011;39583;54.682;30.662;2022-09-29T10:18:21;5.60;;;4.93;;
53688;SDS011;39583;54.682;30.662;2022-09-29T10:20:51;4.90;;;4.47;;
53688;SDS011;39583;54.682;30.662;2022-09-29T10:23:19;4.00;;;3.40;;
53688;SDS011;39583;54.682;30.662;2022-09-29T10:28:21;3.70;;;3.28;;
53688;SDS011;39583;54.682;30.662;2022-09-29T10:30:48;3.85;;;3.25;;
53688;SDS011;39583;54.682;30.662;2022-09-29T10:33:16;4.82;;;4.40;;
53688;SDS011;39583;54.682;30.662;2022-09-29T10:35:46;3.83;;;2.78;;
53688;SDS011;39583;54.682;30.662;2022-09-29T10:38:17;4.78;;;3.53;;
53688;SDS011;39583;54.682;30.662;2022-09-29T10:43:39;4.53;;;4.13;;
53688;SDS011;39583;54.682;30.662;2022-09-29T10:49:21;4.90;;;2.97;;
53688;SDS011;39583;54.682;30.662;2022-09-29T10:54:39;3.00;;;2.70;;
53688;SDS011;39583;54.682;30.662;2022-09-29T10:57:30;3.95;;;2.67;;
53688;SDS011;39583;54.682;30.662;2022-09-29T10:59:58;3.28;;;2.92;;
53688;SDS011;39583;54.682;30.662;2022-09-29T11:02:28;9.30;;;2.70;;
53688;SDS011;39583;54.682;30.662;2022-09-29T11:05:02;3.63;;;3.33;;
53688;SDS011;39583;54.682;30.662;2022-09-29T11:07:43;4.40;;;2.58;;
53688;SDS011;39583;54.682;30.662;2022-09-29T11:10:44;5.35;;;3.85;;
53688;SDS011;39583;54.682;30.662;2022-09-29T11:15:42;2.80;;;2.30;;
53688;SDS011;39583;54.682;30.662;2022-09-29T11:18:18;3.17;;;2.50;;
53688;SDS011;39583;54.682;30.662;2022-09-29T11:20:56;3.05;;;2.15;;
53688;SDS011;39583;54.682;30.662;2022-09-29T11:23:37;2.65;;;2.30;;
53688;SDS011;39583;54.682;30.662;2022-09-29T11:26:19;3.05;;;2.28;;
53688;SDS011;39583;54.682;30.662;2022-09-29T11:31:58;4.05;;;2.58;;
53688;SDS011;39583;54.682;30.662;2022-09-29T11:54:20;3.95;;;3.25;;
53688;SDS011;39583;54.682;30.662;2022-09-29T11:57:34;8.63;;;3.38;;
53688;SDS011;39583;54.682;30.662;2022-09-29T12:00:13;4.68;;;2.90;;
53688;SDS011;39583;54.682;30.662;2022-09-29T12:11:32;3.70;;;2.95;;
53688;SDS011;39583;54.682;30.662;2022-09-29T12:14:16;4.28;;;2.53;;
53688;SDS011;39583;54.682;30.662;2022-09-29T12:17:07;6.50;;;3.72;;
53688;SDS011;39583;54.682;30.662;2022-09-29T12:19:38;6.85;;;2.90;;
53688;SDS011;39583;54.682;30.662;2022-09-29T12:22:07;4.03;;;2.83;;
53688;SDS011;39583;54.682;30.662;2022-09-29T12:24:37;4.13;;;2.95;;
53688;SDS011;39583;54.682;30.662;2022-09-29T12:27:24;5.88;;;2.92;;
53688;SDS011;39583;54.682;30.662;2022-09-29T12:29:55;8.20;;;3.50;;
53688;SDS011;39583;54.682;30.662;2022-09-29T12:34:59;5.88;;;3.25;;
53688;SDS011;39583;54.682;30.662;2022-09-29T12:40:16;4.22;;;3.22;;
53688;SDS011;39583;54.682;30.662;2022-09-29T12:43:07;4.68;;;3.28;;
53688;SDS011;39583;54.682;30.662;2022-09-29T12:57:10;6.13;;;3.13;;
53688;SDS011;39583;54.682;30.662;2022-09-29T13:10:57;3.78;;;2.30;;
53688;SDS011;39583;54.682;30.662;2022-09-29T13:21:32;4.03;;;2.78;;
53688;SDS011;39583;54.682;30.662;2022-09-29T13:30:27;3.72;;;3.00;;
53688;SDS011;39583;54.682;30.662;2022-09-29T13:33:08;3.55;;;2.90;;
53688;SDS011;39583;54.682;30.662;2022-09-29T13:35:44;3.10;;;2.70;;
53688;SDS011;39583;54.682;30.662;2022-09-29T13:38:23;4.28;;;3.20;;
53688;SDS011;39583;54.682;30.662;2022-09-29T13:59:34;4.28;;;2.72;;
53688;SDS011;39583;54.682;30.662;2022-09-29T14:02:01;4.43;;;2.58;;
53688;SDS011;39583;54.682;30.662;2022-09-29T14:07:12;2.78;;;2.50;;
53688;SDS011;39583;54.682;30.662;2022-09-29T14:10:02;3.75;;;2.47;;
53688;SDS011;39583;54.682;30.662;2022-09-29T14:12:42;7.78;;;2.83;;
53688;SDS011;39583;54.682;30.662;2022-09-29T14:15:11;2.75;;;2.30;;
53688;SDS011;39583;54.682;30.662;2022-09-29T14:17:43;3.67;;;2.40;;
53688;SDS011;39583;54.682;30.662;2022-09-29T14:20:20;3.38;;;2.70;;
53688;SDS011;39583;54.682;30.662;2022-09-29T14:22:57;3.45;;;2.90;;
53688;SDS011;39583;54.682;30.662;2022-09-29T14:25:30;8.80;;;3.53;;
53688;SDS011;39583;54.682;30.662;2022-09-29T14:28:06;5.25;;;3.33;;
53688;SDS011;39583;54.682;30.662;2022-09-29T14:30:45;5.97;;;4.28;;
53688;SDS011;39583;54.682;30.662;2022-09-29T14:33:22;4.78;;;3.47;;
53688;SDS011;39583;54.682;30.662;2022-09-29T14:36:10;5.18;;;3.45;;
53688;SDS011;39583;54.682;30.662;2022-09-29T14:38:43;3.92;;;3.53;;
53688;SDS011;39583;54.682;30.662;2022-09-29T14:52:52;5.55;;;4.43;;
53688;SDS011;39583;54.682;30.662;2022-09-29T14:58:15;8.70;;;4.55;;
53688;SDS011;39583;54.682;30.662;2022-09-29T15:06:22;6.68;;;4.65;;
53688;SDS011;39583;54.682;30.662;2022-09-29T15:09:10;6.10;;;4.70;;
53688;SDS011;39583;54.682;30.662;2022-09-29T15:11:42;7.57;;;4.90;;
53688;SDS011;39583;54.682;30.662;2022-09-29T15:22:37;5.35;;;4.03;;
53688;SDS011;39583;54.682;30.662;2022-09-29T15:25:35;6.20;;;4.28;;
53688;SDS011;39583;54.682;30.662;2022-09-29T15:28:09;4.93;;;3.78;;
53688;SDS011;39583;54.682;30.662;2022-09-29T15:30:37;4.43;;;3.78;;
53688;SDS011;39583;54.682;30.662;2022-09-29T15:35:33;4.10;;;3.67;;
53688;SDS011;39583;54.682;30.662;2022-09-29T15:40:52;5.75;;;3.33;;
53688;SDS011;39583;54.682;30.662;2022-09-29T15:43:27;3.50;;;3.20;;
53688;SDS011;39583;54.682;30.662;2022-09-29T15:45:58;4.30;;;3.67;;
53688;SDS011;39583;54.682;30.662;2022-09-29T15:48:28;3.28;;;2.97;;
53688;SDS011;39583;54.682;30.662;2022-09-29T15:50:55;4.13;;;3.70;;
53688;SDS011;39583;54.682;30.662;2022-09-29T15:53:24;4.00;;;3.53;;
53688;SDS011;39583;54.682;30.662;2022-09-29T15:55:52;6.25;;;3.70;;
53688;SDS011;39583;54.682;30.662;2022-09-29T16:00:56;4.53;;;3.95;;
53688;SDS011;39583;54.682;30.662;2022-09-29T16:03:36;4.00;;;3.35;;
53688;SDS011;39583;54.682;30.662;2022-09-29T16:06:07;3.92;;;3.13;;
53688;SDS011;39583;54.682;30.662;2022-09-29T16:08:47;5.28;;;3.28;;
53688;SDS011;39583;54.682;30.662;2022-09-29T16:11:29;10.57;;;4.47;;
53688;SDS011;39583;54.682;30.662;2022-09-29T16:14:00;8.43;;;3.83;;
53688;SDS011;39583;54.682;30.662;2022-09-29T16:16:36;5.15;;;4.00;;
53688;SDS011;39583;54.682;30.662;2022-09-29T16:21:49;4.90;;;4.20;;
53688;SDS011;39583;54.682;30.662;2022-09-29T16:24:19;4.82;;;3.30;;
53688;SDS011;39583;54.682;30.662;2022-09-29T16:26:47;3.97;;;3.35;;
53688;SDS011;39583;54.682;30.662;2022-09-29T16:31:41;4.30;;;3.28;;
53688;SDS011;39583;54.682;30.662;2022-09-29T16:36:48;4.47;;;2.97;;
53688;SDS011;39583;54.682;30.662;2022-09-29T16:39:20;3.67;;;2.97;;
53688;SDS011;39583;54.682;30.662;2022-09-29T16:41:50;3.58;;;2.97;;
53688;SDS011;39583;54.682;30.662;2022-09-29T16:49:43;4.35;;;3.30;;
53688;SDS011;39583;54.682;30.662;2022-09-29T16:52:34;4.93;;;3.25;;
53688;SDS011;39583;54.682;30.662;2022-09-29T17:00:38;3.83;;;3.10;;
53688;SDS011;39583;54.682;30.662;2022-09-29T17:03:05;3.58;;;3.28;;
53688;SDS011;39583;54.682;30.662;2022-09-29T17:05:36;4.55;;;3.50;;
53688;SDS011;39583;54.682;30.662;2022-09-29T17:08:15;3.90;;;3.20;;
53688;SDS011;39583;54.682;30.662;2022-09-29T17:10:46;5.82;;;3.45;;
53688;SDS011;39583;54.682;30.662;2022-09-29T17:13:13;3.50;;;3.20;;
53688;SDS011;39583;54.682;30.662;2022-09-29T17:15:41;5.15;;;3.55;;
53688;SDS011;39583;54.682;30.662;2022-09-29T17:18:13;5.13;;;4.63;;
53688;SDS011;39583;54.682;30.662;2022-09-29T17:20:41;7.38;;;3.75;;
53688;SDS011;39583;54.682;30.662;2022-09-29T17:23:08;5.32;;;3.72;;
53688;SDS011;39583;54.682;30.662;2022-09-29T17:25:40;7.28;;;3.75;;
53688;SDS011;39583;54.682;30.662;2022-09-29T17:28:16;4.20;;;3.80;;
53688;SDS011;39583;54.682;30.662;2022-09-29T17:30:55;5.05;;;4.15;;
53688;SDS011;39583;54.682;30.662;2022-09-29T17:33:22;5.28;;;4.43;;
53688;SDS011;39583;54.682;30.662;2022-09-29T17:35:49;4.43;;;3.97;;
53688;SDS011;39583;54.682;30.662;2022-09-29T17:38:17;6.63;;;4.30;;
53688;SDS011;39583;54.682;30.662;2022-09-29T17:40:54;5.22;;;4.38;;
53688;SDS011;39583;54.682;30.662;2022-09-29T17:43:27;5.13;;;4.60;;
53688;SDS011;39583;54.682;30.662;2022-09-29T17:45:58;6.57;;;4.68;;
53688;SDS011;39583;54.682;30.662;2022-09-29T17:48:28;7.63;;;4.35;;
53688;SDS011;39583;54.682;30.662;2022-09-29T17:50:57;6.47;;;4.57;;
53688;SDS011;39583;54.682;30.662;2022-09-29T17:53:25;5.80;;;4.53;;
53688;SDS011;39583;54.682;30.662;2022-09-29T17:55:56;6.55;;;4.80;;
53688;SDS011;39583;54.682;30.662;2022-09-29T17:58:23;4.93;;;3.70;;
53688;SDS011;39583;54.682;30.662;2022-09-29T18:00:51;6.00;;;3.83;;
53688;SDS011;39583;54.682;30.662;2022-09-29T18:03:19;5.55;;;4.05;;
53688;SDS011;39583;54.682;30.662;2022-09-29T18:05:47;7.82;;;4.13;;
53688;SDS011;39583;54.682;30.662;2022-09-29T18:08:21;6.75;;;4.18;;
53688;SDS011;39583;54.682;30.662;2022-09-29T18:10:51;6.80;;;4.35;;
53688;SDS011;39583;54.682;30.662;2022-09-29T18:13:20;7.35;;;5.22;;
53688;SDS011;39583;54.682;30.662;2022-09-29T18:15:49;8.20;;;4.95;;
53688;SDS011;39583;54.682;30.662;2022-09-29T18:18:17;4.93;;;4.43;;
53688;SDS011;39583;54.682;30.662;2022-09-29T18:20:46;6.10;;;3.22;;
53688;SDS011;39583;54.682;30.662;2022-09-29T18:23:16;7.18;;;3.05;;
53688;SDS011;39583;54.682;30.662;2022-09-29T18:25:45;3.88;;;3.47;;
53688;SDS011;39583;54.682;30.662;2022-09-29T18:28:15;3.78;;;2.95;;
53688;SDS011;39583;54.682;30.662;2022-09-29T18:30:45;3.80;;;3.05;;
53688;SDS011;39583;54.682;30.662;2022-09-29T18:33:15;5.15;;;3.08;;
53688;SDS011;39583;54.682;30.662;2022-09-29T18:35:50;3.88;;;3.17;;
53688;SDS011;39583;54.682;30.662;2022-09-29T18:38:18;3.10;;;2.80;;
53688;SDS011;39583;54.682;30.662;2022-09-29T18:40:44;4.40;;;3.10;;
53688;SDS011;39583;54.682;30.662;2022-09-29T18:43:12;3.17;;;2.17;;
53688;SDS011;39583;54.682;30.662;2022-09-29T18:45:39;3.92;;;2.92;;
53688;SDS011;39583;54.682;30.662;2022-09-29T18:48:10;3.08;;;1.67;;
53688;SDS011;39583;54.682;30.662;2022-09-29T18:50:56;3.83;;;1.80;;
53688;SDS011;39583;54.682;30.662;2022-09-29T18:53:23;3.67;;;1.90;;
53688;SDS011;39583;54.682;30.662;2022-09-29T18:55:53;6.00;;;2.05;;
53688;SDS011;39583;54.682;30.662;2022-09-29T18:58:24;2.00;;;1.70;;
53688;SDS011;39583;54.682;30.662;2022-09-29T19:00:52;2.25;;;1.70;;
53688;SDS011;39583;54.682;30.662;2022-09-29T19:03:20;3.22;;;1.85;;
53688;SDS011;39583;54.682;30.662;2022-09-29T19:05:49;5.13;;;1.70;;
53688;SDS011;39583;54.682;30.662;2022-09-29T19:08:17;2.70;;;1.70;;
53688;SDS011;39583;54.682;30.662;2022-09-29T19:10:49;9.88;;;2.00;;
53688;SDS011;39583;54.682;30.662;2022-09-29T19:13:19;5.82;;;1.73;;
53688;SDS011;39583;54.682;30.662;2022-09-29T19:15:46;2.17;;;1.50;;
53688;SDS011;39583;54.682;30.662;2022-09-29T19:18:15;1.48;;;1.20;;
53688;SDS011;39583;54.682;30.662;2022-09-29T19:20:52;1.55;;;1.30;;
53688;SDS011;39583;54.682;30.662;2022-09-29T19:23:20;1.73;;;1.20;;
53688;SDS011;39583;54.682;30.662;2022-09-29T19:25:49;1.95;;;1.20;;
53688;SDS011;39583;54.682;30.662;2022-09-29T19:28:17;1.45;;;1.15;;
53688;SDS011;39583;54.682;30.662;2022-09-29T19:30:45;1.75;;;1.40;;
53688;SDS011;39583;54.682;30.662;2022-09-29T19:33:14;1.77;;;1.20;;
53688;SDS011;39583;54.682;30.662;2022-09-29T19:35:44;3.70;;;1.45;;
53688;SDS011;39583;54.682;30.662;2022-09-29T19:40:44;5.13;;;1.50;;
53688;SDS011;39583;54.682;30.662;2022-09-29T19:43:11;6.65;;;1.80;;
53688;SDS011;39583;54.682;30.662;2022-09-29T19:45:39;2.47;;;1.17;;
53688;SDS011;39583;54.682;30.662;2022-09-29T19:48:07;4.80;;;1.20;;
53688;SDS011;39583;54.682;30.662;2022-09-29T19:50:38;1.80;;;1.40;;
53688;SDS011;39583;54.682;30.662;2022-09-29T19:53:23;1.52;;;1.38;;
53688;SDS011;39583;54.682;30.662;2022-09-29T19:55:50;3.40;;;1.58;;
53688;SDS011;39583;54.682;30.662;2022-09-29T19:58:17;1.85;;;1.40;;
53688;SDS011;39583;54.682;30.662;2022-09-29T20:00:44;2.75;;;1.45;;
53688;SDS011;39583;54.682;30.662;2022-09-29T20:03:10;2.33;;;1.40;;
53688;SDS011;39583;54.682;30.662;2022-09-29T20:05:37;1.60;;;1.30;;
53688;SDS011;39583;54.682;30.662;2022-09-29T20:08:04;1.95;;;1.10;;
53688;SDS011;39583;54.682;30.662;2022-09-29T20:10:31;2.88;;;1.58;;
53688;SDS011;39583;54.682;30.662;2022-09-29T20:12:58;1.50;;;1.25;;
53688;SDS011;39583;54.682;30.662;2022-09-29T20:15:25;5.82;;;1.30;;
53688;SDS011;39583;54.682;30.662;2022-09-29T20:17:51;1.67;;;1.30;;
53688;SDS011;39583;54.682;30.662;2022-09-29T20:20:18;1.92;;;1.30;;
53688;SDS011;39583;54.682;30.662;2022-09-29T20:22:48;5.53;;;1.13;;
53688;SDS011;39583;54.682;30.662;2022-09-29T20:25:15;2.65;;;1.40;;
53688;SDS011;39583;54.682;30.662;2022-09-29T20:27:43;1.90;;;1.45;;
53688;SDS011;39583;54.682;30.662;2022-09-29T20:30:10;1.70;;;1.25;;
53688;SDS011;39583;54.682;30.662;2022-09-29T20:32:36;4.20;;;1.10;;
53688;SDS011;39583;54.682;30.662;2022-09-29T20:35:03;2.50;;;1.33;;
53688;SDS011;39583;54.682;30.662;2022-09-29T20:37:30;1.58;;;1.23;;
53688;SDS011;39583;54.682;30.662;2022-09-29T20:39:57;1.48;;;1.13;;
53688;SDS011;39583;54.682;30.662;2022-09-29T20:42:23;1.73;;;1.27;;
53688;SDS011;39583;54.682;30.662;2022-09-29T20:44:50;3.22;;;1.33;;
53688;SDS011;39583;54.682;30.662;2022-09-29T20:47:21;1.15;;;0.98;;
53688;SDS011;39583;54.682;30.662;2022-09-29T20:49:52;2.35;;;1.40;;
53688;SDS011;39583;54.682;30.662;2022-09-29T20:52:19;2.85;;;1.45;;
53688;SDS011;39583;54.682;30.662;2022-09-29T20:54:45;3.25;;;1.30;;
53688;SDS011;39583;54.682;30.662;2022-09-29T20:57:12;1.50;;;1.40;;
53688;SDS011;39583;54.682;30.662;2022-09-29T20:59:41;1.70;;;1.30;;
53688;SDS011;39583;54.682;30.662;2022-09-29T21:02:11;3.13;;;1.25;;
53688;SDS011;39583;54.682;30.662;2022-09-29T21:04:38;1.77;;;1.27;;
53688;SDS011;39583;54.682;30.662;2022-09-29T21:07:04;1.45;;;1.13;;
53688;SDS011;39583;54.682;30.662;2022-09-29T21:09:50;1.70;;;1.00;;
53688;SDS011;39583;54.682;30.662;2022-09-29T21:12:17;3.65;;;1.38;;
53688;SDS011;39583;54.682;30.662;2022-09-29T21:14:43;1.38;;;1.10;;
53688;SDS011;39583;54.682;30.662;2022-09-29T21:17:11;3.08;;;1.13;;
53688;SDS011;39583;54.682;30.662;2022-09-29T21:19:40;1.58;;;1.20;;
53688;SDS011;39583;54.682;30.662;2022-09-29T21:22:06;5.55;;;1.20;;
53688;SDS011;39583;54.682;30.662;2022-09-29T21:24:33;1.75;;;1.35;;
53688;SDS011;39583;54.682;30.662;2022-09-29T21:27:08;1.60;;;1.17;;
53688;SDS011;39583;54.682;30.662;2022-09-29T21:29:36;1.65;;;1.27;;
53688;SDS011;39583;54.682;30.662;2022-09-29T21:32:04;1.60;;;1.40;;
53688;SDS011;39583;54.682;30.662;2022-09-29T21:34:32;1.60;;;1.20;;
53688;SDS011;39583;54.682;30.662;2022-09-29T21:37:01;2.78;;;1.30;;
53688;SDS011;39583;54.682;30.662;2022-09-29T21:39:32;2.80;;;1.30;;
53688;SDS011;39583;54.682;30.662;2022-09-29T21:42:01;1.65;;;1.20;;
53688;SDS011;39583;54.682;30.662;2022-09-29T21:44:27;2.22;;;1.27;;
53688;SDS011;39583;54.682;30.662;2022-09-29T21:46:53;1.90;;;1.25;;
53688;SDS011;39583;54.682;30.662;2022-09-29T21:49:20;2.10;;;1.40;;
53688;SDS011;39583;54.682;30.662;2022-09-29T21:51:47;3.17;;;1.30;;
53688;SDS011;39583;54.682;30.662;2022-09-29T21:54:15;1.70;;;1.30;;
53688;SDS011;39583;54.682;30.662;2022-09-29T21:56:43;1.20;;;1.10;;
53688;SDS011;39583;54.682;30.662;2022-09-29T21:59:13;2.85;;;1.40;;
53688;SDS011;39583;54.682;30.662;2022-09-29T22:01:50;1.45;;;1.35;;
53688;SDS011;39583;54.682;30.662;2022-09-29T22:04:23;1.50;;;1.20;;
53688;SDS011;39583;54.682;30.662;2022-09-29T22:06:49;2.20;;;1.40;;
53688;SDS011;39583;54.682;30.662;2022-09-29T22:09:22;5.25;;;1.40;;
53688;SDS011;39583;54.682;30.662;2022-09-29T22:12:05;2.55;;;1.20;;
53688;SDS011;39583;54.682;30.662;2022-09-29T22:14:44;1.75;;;1.30;;
